sensor_id;sensor_type;location;lat;lon;timestamp;pressure;altitude;pressure_sealevel;temperature;humidity
74680;BME280;63211;48.548;2.704;2023-04-03T00:01:18;101792.72;;;18.14;61.38
74680;BME280;63211;48.548;2.704;2023-04-03T00:03:45;101788.94;;;18.15;61.43
74680;BME280;63211;48.548;2.704;2023-04-03T00:06:12;101775.03;;;18.04;61.32
74680;BME280;63211;48.548;2.704;2023-04-03T00:08:39;101795.63;;;18.13;61.46
74680;BME280;63211;48.548;2.704;2023-04-03T00:11:06;101792.06;;;18.12;61.55
74680;BME280;63211;48.548;2.704;2023-04-03T00:13:34;101791.69;;;18.15;61.25
74680;BME280;63211;48.548;2.704;2023-04-03T00:16:01;101789.22;;;18.20;61.12
74680;BME280;63211;48.548;2.704;2023-04-03T00:18:28;101796.16;;;18.23;61.17
74680;BME280;63211;48.548;2.704;2023-04-03T00:20:55;101793.22;;;18.25;60.03
74680;BME280;63211;48.548;2.704;2023-04-03T00:23:22;101792.84;;;18.28;59.43
74680;BME280;63211;48.548;2.704;2023-04-03T00:25:49;101791.81;;;18.29;57.60
74680;BME280;63211;48.548;2.704;2023-04-03T00:28:16;101790.53;;;18.31;57.26
74680;BME280;63211;48.548;2.704;2023-04-03T00:30:44;101794.94;;;18.32;56.70
74680;BME280;63211;48.548;2.704;2023-04-03T00:33:11;101801.88;;;18.35;57.14
74680;BME280;63211;48.548;2.704;2023-04-03T00:35:38;101800.00;;;18.35;58.49
74680;BME280;63211;48.548;2.704;2023-04-03T00:38:05;101798.31;;;18.34;59.42
74680;BME280;63211;48.548;2.704;2023-04-03T00:40:34;101800.19;;;18.34;59.12
74680;BME280;63211;48.548;2.704;2023-04-03T00:43:01;101778.50;;;18.19;59.52
74680;BME280;63211;48.548;2.704;2023-04-03T00:45:36;101797.03;;;18.30;59.95
74680;BME280;63211;48.548;2.704;2023-04-03T00:48:07;101792.84;;;18.28;60.25
74680;BME280;63211;48.548;2.704;2023-04-03T00:50:36;101796.53;;;18.20;60.38
74680;BME280;63211;48.548;2.704;2023-04-03T00:53:05;101798.22;;;18.21;60.57
74680;BME280;63211;48.548;2.704;2023-04-03T00:55:33;101794.00;;;18.18;60.82
74680;BME280;63211;48.548;2.704;2023-04-03T00:58:02;101787.91;;;18.16;60.54
74680;BME280;63211;48.548;2.704;2023-04-03T01:00:29;101789.78;;;18.16;60.98
74680;BME280;63211;48.548;2.704;2023-04-03T01:02:56;101784.53;;;18.14;61.05
74680;BME280;63211;48.548;2.704;2023-04-03T01:05:24;101786.22;;;18.15;60.62
74680;BME280;63211;48.548;2.704;2023-04-03T01:07:51;101780.97;;;18.14;60.93
74680;BME280;63211;48.548;2.704;2023-04-03T01:10:18;101760.19;;;18.06;60.70
74680;BME280;63211;48.548;2.704;2023-04-03T01:12:47;101779.78;;;18.23;60.61
74680;BME280;63211;48.548;2.704;2023-04-03T01:15:17;101780.25;;;18.27;60.33
74680;BME280;63211;48.548;2.704;2023-04-03T01:17:45;101780.91;;;18.29;58.96
74680;BME280;63211;48.548;2.704;2023-04-03T01:23:21;101773.97;;;18.33;56.83
74680;BME280;63211;48.548;2.704;2023-04-03T01:25:52;101782.81;;;18.35;56.19
74680;BME280;63211;48.548;2.704;2023-04-03T01:28:21;101771.69;;;18.36;55.60
74680;BME280;63211;48.548;2.704;2023-04-03T01:30:50;101765.13;;;18.24;56.35
74680;BME280;63211;48.548;2.704;2023-04-03T01:33:19;101769.22;;;18.41;55.87
74680;BME280;63211;48.548;2.704;2023-04-03T01:35:46;101780.38;;;18.46;57.30
74680;BME280;63211;48.548;2.704;2023-04-03T01:38:12;101787.03;;;18.37;58.67
74680;BME280;63211;48.548;2.704;2023-04-03T01:40:40;101776.97;;;18.38;57.17
74680;BME280;63211;48.548;2.704;2023-04-03T01:43:06;101782.00;;;18.41;58.23
74680;BME280;63211;48.548;2.704;2023-04-03T01:45:33;101775.06;;;18.38;58.95
74680;BME280;63211;48.548;2.704;2023-04-03T01:48:00;101778.59;;;18.32;59.53
74680;BME280;63211;48.548;2.704;2023-04-03T01:50:28;101775.22;;;18.30;60.07
74680;BME280;63211;48.548;2.704;2023-04-03T01:52:55;101772.25;;;18.25;60.66
74680;BME280;63211;48.548;2.704;2023-04-03T01:55:21;101779.16;;;18.21;60.95
74680;BME280;63211;48.548;2.704;2023-04-03T01:57:48;101776.81;;;18.18;61.41
74680;BME280;63211;48.548;2.704;2023-04-03T02:00:15;101777.84;;;18.17;61.30
74680;BME280;63211;48.548;2.704;2023-04-03T02:02:41;101777.00;;;18.16;61.45
74680;BME280;63211;48.548;2.704;2023-04-03T02:05:08;101748.38;;;17.99;61.45
74680;BME280;63211;48.548;2.704;2023-04-03T02:07:37;101777.22;;;18.15;61.55
74680;BME280;63211;48.548;2.704;2023-04-03T02:10:04;101772.41;;;18.17;61.13
74680;BME280;63211;48.548;2.704;2023-04-03T02:12:30;101778.94;;;18.23;60.56
74680;BME280;63211;48.548;2.704;2023-04-03T02:14:57;101775.84;;;18.26;60.25
74680;BME280;63211;48.548;2.704;2023-04-03T02:17:24;101771.88;;;18.28;60.15
74680;BME280;63211;48.548;2.704;2023-04-03T02:19:50;101772.50;;;18.30;57.65
74680;BME280;63211;48.548;2.704;2023-04-03T02:22:17;101776.69;;;18.33;57.80
74680;BME280;63211;48.548;2.704;2023-04-03T02:24:45;101777.53;;;18.33;57.17
74680;BME280;63211;48.548;2.704;2023-04-03T02:27:13;101781.97;;;18.34;56.36
74680;BME280;63211;48.548;2.704;2023-04-03T02:29:40;101772.53;;;18.37;57.99
74680;BME280;63211;48.548;2.704;2023-04-03T02:32:06;101777.16;;;18.36;58.38
74680;BME280;63211;48.548;2.704;2023-04-03T02:34:33;101780.06;;;18.35;58.29
74680;BME280;63211;48.548;2.704;2023-04-03T02:36:59;101773.34;;;18.31;58.69
74680;BME280;63211;48.548;2.704;2023-04-03T02:39:26;101779.44;;;18.33;58.63
74680;BME280;63211;48.548;2.704;2023-04-03T02:41:54;101777.09;;;18.30;59.05
74680;BME280;63211;48.548;2.704;2023-04-03T02:44:21;101780.91;;;18.29;59.28
74680;BME280;63211;48.548;2.704;2023-04-03T02:46:48;101784.84;;;18.26;59.54
74680;BME280;63211;48.548;2.704;2023-04-03T02:49:15;101781.69;;;18.23;59.86
74680;BME280;63211;48.548;2.704;2023-04-03T02:51:41;101778.50;;;18.19;60.08
74680;BME280;63211;48.548;2.704;2023-04-03T02:54:08;101776.38;;;18.14;60.63
74680;BME280;63211;48.548;2.704;2023-04-03T02:56:35;101771.09;;;18.13;60.71
74680;BME280;63211;48.548;2.704;2023-04-03T02:59:03;101775.72;;;18.12;60.99
74680;BME280;63211;48.548;2.704;2023-04-03T03:01:30;101775.91;;;18.11;61.08
74680;BME280;63211;48.548;2.704;2023-04-03T03:03:58;101768.78;;;18.10;60.88
74680;BME280;63211;48.548;2.704;2023-04-03T03:06:25;101768.19;;;18.14;60.33
74680;BME280;63211;48.548;2.704;2023-04-03T03:08:52;101763.84;;;18.20;60.13
74680;BME280;63211;48.548;2.704;2023-04-03T03:11:18;101763.44;;;18.23;60.43
74680;BME280;63211;48.548;2.704;2023-04-03T03:13:46;101764.28;;;18.24;59.19
74680;BME280;63211;48.548;2.704;2023-04-03T03:16:14;101760.13;;;18.28;57.98
74680;BME280;63211;48.548;2.704;2023-04-03T03:18:40;101766.19;;;18.30;57.21
74680;BME280;63211;48.548;2.704;2023-04-03T03:21:09;101755.25;;;18.23;56.59
74680;BME280;63211;48.548;2.704;2023-04-03T03:23:35;101763.47;;;18.30;56.57
74680;BME280;63211;48.548;2.704;2023-04-03T03:26:04;101755.94;;;18.32;56.39
74680;BME280;63211;48.548;2.704;2023-04-03T03:28:31;101756.78;;;18.32;57.94
74680;BME280;63211;48.548;2.704;2023-04-03T03:30:58;101766.84;;;18.32;58.14
74680;BME280;63211;48.548;2.704;2023-04-03T03:33:26;101768.06;;;18.29;58.88
74680;BME280;63211;48.548;2.704;2023-04-03T03:35:53;101764.31;;;18.30;58.52
74680;BME280;63211;48.548;2.704;2023-04-03T03:38:21;101771.88;;;18.28;59.00
74680;BME280;63211;48.548;2.704;2023-04-03T03:40:48;101763.06;;;18.26;59.28
74680;BME280;63211;48.548;2.704;2023-04-03T03:43:15;101765.97;;;18.25;59.21
74680;BME280;63211;48.548;2.704;2023-04-03T03:45:42;101770.78;;;18.23;59.29
74680;BME280;63211;48.548;2.704;2023-04-03T03:48:09;101761.94;;;18.20;59.25
74680;BME280;63211;48.548;2.704;2023-04-03T03:50:37;101760.47;;;18.18;59.58
74680;BME280;63211;48.548;2.704;2023-04-03T03:53:04;101768.84;;;18.16;59.79
74680;BME280;63211;48.548;2.704;2023-04-03T03:55:30;101762.72;;;18.14;59.73
74680;BME280;63211;48.548;2.704;2023-04-03T03:57:57;101766.88;;;18.10;60.16
74680;BME280;63211;48.548;2.704;2023-04-03T04:00:25;101758.72;;;18.10;60.05
74680;BME280;63211;48.548;2.704;2023-04-03T04:02:51;101763.59;;;18.15;60.48
74680;BME280;63211;48.548;2.704;2023-04-03T04:05:18;101761.50;;;18.17;60.18
74680;BME280;63211;48.548;2.704;2023-04-03T04:07:46;101761.09;;;18.20;59.83
74680;BME280;63211;48.548;2.704;2023-04-03T04:10:12;101763.44;;;18.23;58.66
74680;BME280;63211;48.548;2.704;2023-04-03T04:12:39;101760.53;;;18.25;57.33
74680;BME280;63211;48.548;2.704;2023-04-03T04:15:07;101760.31;;;18.26;56.16
74680;BME280;63211;48.548;2.704;2023-04-03T04:17:33;101759.28;;;18.27;56.27
74680;BME280;63211;48.548;2.704;2023-04-03T04:20:01;101760.75;;;18.30;56.02
74680;BME280;63211;48.548;2.704;2023-04-03T04:22:28;101767.88;;;18.31;54.80
74680;BME280;63211;48.548;2.704;2023-04-03T04:24:56;101757.81;;;18.31;55.90
74680;BME280;63211;48.548;2.704;2023-04-03T04:27:23;101752.38;;;18.31;57.53
74680;BME280;63211;48.548;2.704;2023-04-03T04:29:49;101759.28;;;18.27;58.01
74680;BME280;63211;48.548;2.704;2023-04-03T04:32:16;101766.63;;;18.27;58.30
74680;BME280;63211;48.548;2.704;2023-04-03T04:34:42;101760.31;;;18.26;58.83
74680;BME280;63211;48.548;2.704;2023-04-03T04:37:09;101755.25;;;18.23;58.47
74680;BME280;63211;48.548;2.704;2023-04-03T04:39:35;101771.41;;;18.25;58.41
74680;BME280;63211;48.548;2.704;2023-04-03T04:42:03;101760.47;;;18.18;58.75
74680;BME280;63211;48.548;2.704;2023-04-03T04:44:32;101779.59;;;18.25;59.14
74680;BME280;63211;48.548;2.704;2023-04-03T04:46:58;101767.84;;;18.24;59.14
74680;BME280;63211;48.548;2.704;2023-04-03T04:49:25;101769.94;;;18.22;59.24
74680;BME280;63211;48.548;2.704;2023-04-03T04:51:52;101760.28;;;18.19;59.17
74680;BME280;63211;48.548;2.704;2023-04-03T04:54:18;101760.22;;;18.13;59.65
74680;BME280;63211;48.548;2.704;2023-04-03T04:56:45;101762.94;;;18.13;59.57
74680;BME280;63211;48.548;2.704;2023-04-03T04:59:13;101762.53;;;18.16;59.18
74680;BME280;63211;48.548;2.704;2023-04-03T05:01:39;101771.09;;;18.13;58.49
74680;BME280;63211;48.548;2.704;2023-04-03T05:04:06;101762.34;;;18.17;57.69
74680;BME280;63211;48.548;2.704;2023-04-03T05:06:33;101768.91;;;18.23;56.90
74680;BME280;63211;48.548;2.704;2023-04-03T05:09:00;101771.22;;;18.26;56.08
74680;BME280;63211;48.548;2.704;2023-04-03T05:11:27;101776.47;;;18.28;55.92
74680;BME280;63211;48.548;2.704;2023-04-03T05:13:54;101767.47;;;18.27;55.71
74680;BME280;63211;48.548;2.704;2023-04-03T05:16:22;101767.25;;;18.29;55.22
74680;BME280;63211;48.548;2.704;2023-04-03T05:18:48;101769.56;;;18.32;54.54
74680;BME280;63211;48.548;2.704;2023-04-03T05:21:15;101773.97;;;18.33;55.92
74680;BME280;63211;48.548;2.704;2023-04-03T05:23:43;101776.69;;;18.33;56.91
74680;BME280;63211;48.548;2.704;2023-04-03T05:26:10;101777.94;;;18.30;56.75
74680;BME280;63211;48.548;2.704;2023-04-03T05:28:36;101770.81;;;18.29;57.66
74680;BME280;63211;48.548;2.704;2023-04-03T05:31:03;101779.22;;;18.28;57.67
74680;BME280;63211;48.548;2.704;2023-04-03T05:33:31;101783.81;;;18.27;57.77
74680;BME280;63211;48.548;2.704;2023-04-03T05:36:02;101779.22;;;18.28;58.29
74680;BME280;63211;48.548;2.704;2023-04-03T05:38:29;101787.59;;;18.26;58.53
74680;BME280;63211;48.548;2.704;2023-04-03T05:40:55;101786.75;;;18.26;57.94
74680;BME280;63211;48.548;2.704;2023-04-03T05:43:22;101784.53;;;18.14;57.20
74680;BME280;63211;48.548;2.704;2023-04-03T05:45:48;101776.06;;;18.03;57.99
74680;BME280;63211;48.548;2.704;2023-04-03T05:48:15;101787.22;;;18.08;58.59
74680;BME280;63211;48.548;2.704;2023-04-03T05:50:43;101789.13;;;18.07;58.87
74680;BME280;63211;48.548;2.704;2023-04-03T05:53:14;101793.06;;;18.05;58.81
74680;BME280;63211;48.548;2.704;2023-04-03T05:55:42;101786.13;;;18.02;58.88
74680;BME280;63211;48.548;2.704;2023-04-03T05:58:08;101788.28;;;18.07;58.35
74680;BME280;63211;48.548;2.704;2023-04-03T06:00:35;101798.44;;;18.19;57.77
74680;BME280;63211;48.548;2.704;2023-04-03T06:03:01;101781.03;;;18.20;58.80
74680;BME280;63211;48.548;2.704;2023-04-03T06:05:28;101786.56;;;18.34;58.62
74680;BME280;63211;48.548;2.704;2023-04-03T06:07:56;101791.25;;;18.40;58.17
74680;BME280;63211;48.548;2.704;2023-04-03T06:10:23;101790.38;;;18.39;58.24
74680;BME280;63211;48.548;2.704;2023-04-03T06:12:49;101793.56;;;18.43;58.24
74680;BME280;63211;48.548;2.704;2023-04-03T06:15:16;101789.81;;;18.44;57.59
74680;BME280;63211;48.548;2.704;2023-04-03T06:17:43;101794.59;;;18.42;57.50
74680;BME280;63211;48.548;2.704;2023-04-03T06:20:11;101799.28;;;18.48;57.20
74680;BME280;63211;48.548;2.704;2023-04-03T06:22:37;101798.00;;;18.50;56.89
74680;BME280;63211;48.548;2.704;2023-04-03T06:25:07;101798.66;;;18.52;56.61
74680;BME280;63211;48.548;2.704;2023-04-03T06:27:34;101800.34;;;18.53;56.63
74680;BME280;63211;48.548;2.704;2023-04-03T06:30:01;101802.03;;;18.54;56.50
74680;BME280;63211;48.548;2.704;2023-04-03T06:32:27;101810.00;;;18.56;56.39
74680;BME280;63211;48.548;2.704;2023-04-03T06:34:54;101797.22;;;18.57;56.41
74680;BME280;63211;48.548;2.704;2023-04-03T06:37:22;101800.78;;;18.57;56.43
74680;BME280;63211;48.548;2.704;2023-04-03T06:39:51;101795.31;;;18.57;56.62
74680;BME280;63211;48.548;2.704;2023-04-03T06:42:19;101804.56;;;18.56;56.87
74680;BME280;63211;48.548;2.704;2023-04-03T06:44:46;101819.88;;;18.57;56.72
74680;BME280;63211;48.548;2.704;2023-04-03T06:47:13;101813.78;;;18.55;56.86
74680;BME280;63211;48.548;2.704;2023-04-03T06:49:40;101817.16;;;18.57;56.80
74680;BME280;63211;48.548;2.704;2023-04-03T06:52:08;101811.88;;;18.55;56.85
74680;BME280;63211;48.548;2.704;2023-04-03T06:54:35;101815.47;;;18.56;56.50
74680;BME280;63211;48.548;2.704;2023-04-03T06:57:02;101813.56;;;18.57;56.38
74680;BME280;63211;48.548;2.704;2023-04-03T06:59:30;101814.63;;;18.55;56.18
74680;BME280;63211;48.548;2.704;2023-04-03T07:01:56;101816.31;;;18.57;55.79
74680;BME280;63211;48.548;2.704;2023-04-03T07:04:25;101825.13;;;18.59;56.24
74680;BME280;63211;48.548;2.704;2023-04-03T07:06:51;101817.81;;;18.59;56.01
74680;BME280;63211;48.548;2.704;2023-04-03T07:09:18;101820.34;;;18.61;56.11
74680;BME280;63211;48.548;2.704;2023-04-03T07:11:45;101816.59;;;18.62;55.89
74680;BME280;63211;48.548;2.704;2023-04-03T07:14:11;101803.91;;;18.54;55.82
74680;BME280;63211;48.548;2.704;2023-04-03T07:16:39;101815.53;;;18.63;55.91
74680;BME280;63211;48.548;2.704;2023-04-03T07:19:06;101826.25;;;18.64;55.89
74680;BME280;63211;48.548;2.704;2023-04-03T07:21:34;101819.97;;;18.64;56.01
74680;BME280;63211;48.548;2.704;2023-04-03T07:24:00;101820.59;;;18.66;55.98
74680;BME280;63211;48.548;2.704;2023-04-03T07:26:27;101817.88;;;18.66;56.06
74680;BME280;63211;48.548;2.704;2023-04-03T07:28:53;101826.25;;;18.64;55.92
74680;BME280;63211;48.548;2.704;2023-04-03T07:31:20;101827.94;;;18.65;55.73
74680;BME280;63211;48.548;2.704;2023-04-03T07:33:48;101822.69;;;18.64;56.06
74680;BME280;63211;48.548;2.704;2023-04-03T07:36:17;101777.34;;;18.35;56.24
74680;BME280;63211;48.548;2.704;2023-04-03T07:38:44;101820.16;;;18.62;56.16
74680;BME280;63211;48.548;2.704;2023-04-03T07:41:12;101828.34;;;18.62;56.36
74680;BME280;63211;48.548;2.704;2023-04-03T07:43:40;101822.03;;;18.62;56.33
74680;BME280;63211;48.548;2.704;2023-04-03T07:46:07;101818.47;;;18.61;56.16
74680;BME280;63211;48.548;2.704;2023-04-03T07:48:34;101825.81;;;18.61;56.31
74680;BME280;63211;48.548;2.704;2023-04-03T07:51:03;101822.41;;;18.59;56.11
74680;BME280;63211;48.548;2.704;2023-04-03T07:53:31;101829.75;;;18.58;55.85
74680;BME280;63211;48.548;2.704;2023-04-03T07:55:59;101822.59;;;18.57;55.98
74680;BME280;63211;48.548;2.704;2023-04-03T07:58:28;101814.91;;;18.61;55.55
74680;BME280;63211;48.548;2.704;2023-04-03T08:00:54;101818.47;;;18.61;55.12
74680;BME280;63211;48.548;2.704;2023-04-03T08:03:21;101824.78;;;18.62;55.27
74680;BME280;63211;48.548;2.704;2023-04-03T08:05:49;101818.47;;;18.61;54.85
74680;BME280;63211;48.548;2.704;2023-04-03T08:08:20;101821.84;;;18.63;54.93
74680;BME280;63211;48.548;2.704;2023-04-03T08:10:47;101823.53;;;18.64;55.12
74680;BME280;63211;48.548;2.704;2023-04-03T08:13:14;101821.84;;;18.63;54.69
74680;BME280;63211;48.548;2.704;2023-04-03T08:15:41;101818.06;;;18.64;54.86
74680;BME280;63211;48.548;2.704;2023-04-03T08:18:08;101818.91;;;18.65;54.87
74680;BME280;63211;48.548;2.704;2023-04-03T08:20:35;101821.44;;;18.66;55.42
74680;BME280;63211;48.548;2.704;2023-04-03T08:23:02;101824.81;;;18.68;54.90
74680;BME280;63211;48.548;2.704;2023-04-03T08:25:30;101824.81;;;18.68;54.99
74680;BME280;63211;48.548;2.704;2023-04-03T08:27:56;101834.88;;;18.68;54.79
74680;BME280;63211;48.548;2.704;2023-04-03T08:30:23;101827.56;;;18.68;54.84
74680;BME280;63211;48.548;2.704;2023-04-03T08:32:50;101838.66;;;18.67;55.19
74680;BME280;63211;48.548;2.704;2023-04-03T08:35:16;101830.88;;;18.64;54.93
74680;BME280;63211;48.548;2.704;2023-04-03T08:37:45;101821.66;;;18.65;54.86
74680;BME280;63211;48.548;2.704;2023-04-03T08:40:14;101837.16;;;18.64;55.05
74680;BME280;63211;48.548;2.704;2023-04-03T08:42:50;101826.47;;;18.63;55.04
74680;BME280;63211;48.548;2.704;2023-04-03T08:45:25;101831.06;;;18.62;55.13
74680;BME280;63211;48.548;2.704;2023-04-03T08:47:59;101825.34;;;18.57;55.00
74680;BME280;63211;48.548;2.704;2023-04-03T08:50:31;101834.19;;;18.59;54.68
74680;BME280;63211;48.548;2.704;2023-04-03T08:53:01;101831.47;;;18.59;54.91
74680;BME280;63211;48.548;2.704;2023-04-03T08:55:33;101828.91;;;18.58;54.70
74680;BME280;63211;48.548;2.704;2023-04-03T08:58:04;101829.59;;;18.60;54.98
74680;BME280;63211;48.548;2.704;2023-04-03T09:00:43;101828.34;;;18.62;54.66
74680;BME280;63211;48.548;2.704;2023-04-03T09:03:12;101823.28;;;18.59;54.13
74680;BME280;63211;48.548;2.704;2023-04-03T09:05:42;101826.84;;;18.60;54.03
74680;BME280;63211;48.548;2.704;2023-04-03T09:08:18;101827.69;;;18.60;54.12
74680;BME280;63211;48.548;2.704;2023-04-03T09:10:48;101828.53;;;18.61;53.92
74680;BME280;63211;48.548;2.704;2023-04-03T09:13:23;101839.25;;;18.62;54.33
74680;BME280;63211;48.548;2.704;2023-04-03T09:15:51;101839.66;;;18.59;54.08
74680;BME280;63211;48.548;2.704;2023-04-03T09:18:21;101837.38;;;18.63;54.28
74680;BME280;63211;48.548;2.704;2023-04-03T09:20:58;101830.88;;;18.64;54.79
74680;BME280;63211;48.548;2.704;2023-04-03T09:23:32;101829.84;;;18.65;54.41
74680;BME280;63211;48.548;2.704;2023-04-03T09:26:02;101820.81;;;18.64;54.03
74680;BME280;63211;48.548;2.704;2023-04-03T09:28:32;101820.59;;;18.66;54.32
74680;BME280;63211;48.548;2.704;2023-04-03T09:31:00;101824.78;;;18.62;54.38
74680;BME280;63211;48.548;2.704;2023-04-03T09:33:28;101831.91;;;18.63;54.12
74680;BME280;63211;48.548;2.704;2023-04-03T09:35:56;101830.03;;;18.63;53.89
74680;BME280;63211;48.548;2.704;2023-04-03T09:38:23;101828.34;;;18.62;54.04
74680;BME280;63211;48.548;2.704;2023-04-03T09:41:03;101827.50;;;18.62;54.09
74680;BME280;63211;48.548;2.704;2023-04-03T09:43:33;101833.31;;;18.59;54.04
74680;BME280;63211;48.548;2.704;2023-04-03T09:49:01;101826.00;;;18.59;53.69
74680;BME280;63211;48.548;2.704;2023-04-03T09:51:28;101832.75;;;18.63;53.15
74680;BME280;63211;48.548;2.704;2023-04-03T09:53:55;101821.00;;;18.63;53.82
74680;BME280;63211;48.548;2.704;2023-04-03T09:56:24;101829.00;;;18.64;53.46
74680;BME280;63211;48.548;2.704;2023-04-03T09:59:07;101818.28;;;18.63;53.65
74680;BME280;63211;48.548;2.704;2023-04-03T10:01:36;101808.00;;;18.65;53.71
74680;BME280;63211;48.548;2.704;2023-04-03T10:04:06;101820.59;;;18.66;53.55
74680;BME280;63211;48.548;2.704;2023-04-03T10:06:35;101814.06;;;18.60;53.56
74680;BME280;63211;48.548;2.704;2023-04-03T10:09:04;101812.63;;;18.64;53.55
74680;BME280;63211;48.548;2.704;2023-04-03T10:11:31;101792.34;;;18.45;53.13
74680;BME280;63211;48.548;2.704;2023-04-03T10:14:00;101813.06;;;18.68;52.91
74680;BME280;63211;48.548;2.704;2023-04-03T10:16:35;101827.56;;;18.68;52.78
74680;BME280;63211;48.548;2.704;2023-04-03T10:19:30;101812.03;;;18.69;52.83
74680;BME280;63211;48.548;2.704;2023-04-03T10:21:59;101812.63;;;18.71;53.16
74680;BME280;63211;48.548;2.704;2023-04-03T10:24:36;101808.03;;;18.71;53.13
74680;BME280;63211;48.548;2.704;2023-04-03T10:27:08;101806.97;;;18.72;53.25
74680;BME280;63211;48.548;2.704;2023-04-03T10:29:42;101789.56;;;18.67;53.46
74680;BME280;63211;48.548;2.704;2023-04-03T10:32:20;101802.19;;;18.74;53.26
74680;BME280;63211;48.548;2.704;2023-04-03T10:34:52;101791.47;;;18.73;53.25
74680;BME280;63211;48.548;2.704;2023-04-03T10:37:24;101793.16;;;18.74;53.14
74680;BME280;63211;48.548;2.704;2023-04-03T10:39:54;101792.31;;;18.73;52.92
74680;BME280;63211;48.548;2.704;2023-04-03T10:42:29;101774.25;;;18.72;52.78
74680;BME280;63211;48.548;2.704;2023-04-03T10:45:15;101779.09;;;18.70;52.94
74680;BME280;63211;48.548;2.704;2023-04-03T10:47:50;101762.50;;;18.72;52.82
74680;BME280;63211;48.548;2.704;2023-04-03T10:50:31;101772.16;;;18.74;53.46
74680;BME280;63211;48.548;2.704;2023-04-03T10:53:08;101774.88;;;18.74;52.91
74680;BME280;63211;48.548;2.704;2023-04-03T10:55:42;101769.44;;;18.74;52.83
74680;BME280;63211;48.548;2.704;2023-04-03T10:58:18;101762.28;;;18.67;52.95
74680;BME280;63211;48.548;2.704;2023-04-03T11:00:50;101767.09;;;18.71;52.80
74680;BME280;63211;48.548;2.704;2023-04-03T11:03:29;101756.44;;;18.70;52.77
74680;BME280;63211;48.548;2.704;2023-04-03T11:05:59;101759.75;;;18.72;53.33
74680;BME280;63211;48.548;2.704;2023-04-03T11:08:32;101756.00;;;18.73;52.88
74680;BME280;63211;48.548;2.704;2023-04-03T11:11:04;101738.97;;;18.64;52.79
74680;BME280;63211;48.548;2.704;2023-04-03T11:13:35;101746.31;;;18.64;52.56
74680;BME280;63211;48.548;2.704;2023-04-03T11:16:07;101748.66;;;18.73;52.15
74680;BME280;63211;48.548;2.704;2023-04-03T11:18:37;101718.41;;;18.62;52.24
74680;BME280;63211;48.548;2.704;2023-04-03T11:21:09;101728.72;;;18.66;51.98
74680;BME280;63211;48.548;2.704;2023-04-03T11:23:40;101743.19;;;18.73;51.80
74680;BME280;63211;48.548;2.704;2023-04-03T11:26:10;101745.09;;;18.73;51.49
74680;BME280;63211;48.548;2.704;2023-04-03T11:28:38;101730.81;;;18.71;51.41
74680;BME280;63211;48.548;2.704;2023-04-03T11:31:15;101722.00;;;18.69;51.96
74680;BME280;63211;48.548;2.704;2023-04-03T11:33:58;101720.72;;;18.65;51.94
74680;BME280;63211;48.548;2.704;2023-04-03T11:36:31;101710.00;;;18.63;51.46
74680;BME280;63211;48.548;2.704;2023-04-03T11:39:01;101722.22;;;18.67;51.85
74680;BME280;63211;48.548;2.704;2023-04-03T11:41:29;101727.03;;;18.65;51.83
74680;BME280;63211;48.548;2.704;2023-04-03T11:43:59;101714.22;;;18.66;51.73
74680;BME280;63211;48.548;2.704;2023-04-03T11:46:50;101712.34;;;18.66;51.83
74680;BME280;63211;48.548;2.704;2023-04-03T11:49:50;101707.94;;;18.65;51.55
74680;BME280;63211;48.548;2.704;2023-04-03T11:55:45;101713.59;;;18.64;51.66
74680;BME280;63211;48.548;2.704;2023-04-03T11:58:18;101703.50;;;18.64;52.59
74680;BME280;63211;48.548;2.704;2023-04-03T12:00:54;101701.84;;;18.63;52.50
74680;BME280;63211;48.548;2.704;2023-04-03T12:09:26;101698.47;;;18.61;52.60
74680;BME280;63211;48.548;2.704;2023-04-03T12:11:55;101690.66;;;18.58;52.08
74680;BME280;63211;48.548;2.704;2023-04-03T12:14:23;101703.50;;;18.64;51.99
74680;BME280;63211;48.548;2.704;2023-04-03T12:16:53;101705.84;;;18.67;51.61
74680;BME280;63211;48.548;2.704;2023-04-03T12:19:36;101696.63;;;18.68;51.74
74680;BME280;63211;48.548;2.704;2023-04-03T12:22:17;101694.94;;;18.67;51.62
74680;BME280;63211;48.548;2.704;2023-04-03T12:24:48;101692.19;;;18.67;51.63
74680;BME280;63211;48.548;2.704;2023-04-03T12:30:14;101689.28;;;18.69;51.59
74680;BME280;63211;48.548;2.704;2023-04-03T12:32:51;101680.44;;;18.67;51.29
74680;BME280;63211;48.548;2.704;2023-04-03T12:35:27;101686.75;;;18.67;51.41
74680;BME280;63211;48.548;2.704;2023-04-03T12:38:25;101686.94;;;18.66;51.60
74680;BME280;63211;48.548;2.704;2023-04-03T12:41:10;101684.03;;;18.67;51.54
74680;BME280;63211;48.548;2.704;2023-04-03T12:43:48;101689.47;;;18.67;51.69
74680;BME280;63211;48.548;2.704;2023-04-03T12:46:18;101680.44;;;18.67;51.59
74680;BME280;63211;48.548;2.704;2023-04-03T12:48:49;101668.91;;;18.65;51.46
74680;BME280;63211;48.548;2.704;2023-04-03T12:51:20;101675.63;;;18.69;51.85
74680;BME280;63211;48.548;2.704;2023-04-03T12:53:49;101678.38;;;18.69;52.20
74680;BME280;63211;48.548;2.704;2023-04-03T12:56:24;101682.13;;;18.68;51.70
74680;BME280;63211;48.548;2.704;2023-04-03T12:58:52;101676.03;;;18.66;52.03
74680;BME280;63211;48.548;2.704;2023-04-03T13:01:21;101669.97;;;18.70;52.50
74680;BME280;63211;48.548;2.704;2023-04-03T13:03:51;101667.44;;;18.69;52.09
74680;BME280;63211;48.548;2.704;2023-04-03T13:06:21;101670.19;;;18.69;52.20
74680;BME280;63211;48.548;2.704;2023-04-03T13:08:49;101677.72;;;18.73;52.79
74680;BME280;63211;48.548;2.704;2023-04-03T13:11:16;101656.94;;;18.72;52.21
74680;BME280;63211;48.548;2.704;2023-04-03T13:13:56;101658.66;;;18.80;52.50
74680;BME280;63211;48.548;2.704;2023-04-03T13:16:23;101658.25;;;18.83;52.62
74680;BME280;63211;48.548;2.704;2023-04-03T13:18:51;101648.63;;;18.87;52.35